Accueil
METAR-TAF:

METAR-TAF

Aéroports :

Aéroport de Florence-Peretola

Florence, Italie

latitude: 43-48N, longitude: 011-12E, altitude: 40 m

Observation

Le bulletin a été fait il y a 31 minutes, à 18:20 UTC
Vent 4 kt de est/sud-est, variant entre est et sud/sud-est
Température 22°C
Humidité 73%
Pression 1009 hPa
Visibilité: 9000 m
Quelques nuages à une hauteur de 3000 ft, Cumulus congestus.

METAR: LIRQ 191820Z 11004KT 090V150 9000 FEW030TCU 22/17 Q1009

Heure: 20:51 (18:51 UTC)

Prévision

Le bulletin a été fait il y a 1 heure et 51 minutes, à 17:00 UTC
Prévision valable du 19 à 18 UTC au 20 à 18 UTC
Vent 5 kt de direction variable
Visibilité 10 km ou plus
Nuages épars à une hauteur de 4000 ft
Probabilité 30% :
Temporairement
du 20 à 11 UTC au 20 à 18 UTC
Vent 10 kt de nord/nord-est
orage, pluie,

TAF: LIRQ 191700Z 1918/2018 VRB05KT 9999 SCT040 PROB30 TEMPO 2011/2018 03010KT TSRA

Observations et prévisions météorologiques de plus de 4000 aéroports (messages METAR et TAF).

Les stations disponibles sont représentées par des disques jaunes et rouges sur la carte.

Passer la souris dessus pour voir le nom de la station.

Cliquer dessus pour voir les observations et prévisions météorologiques.

Pour changer de carte: cliquez sur les boutons verts avec une croix noire pour zoomer, sur le bouton vert avec un tiret pour effectuer un zoom arrière, ou sur les flèches vertes pour les cartes adjacentes.


METAR-TAF: